Slochteren, Netherlands
Current Conditions -  °F | °C
As of 11:55 PM on Thursday 18 Dec 2014 (Local Time) from EHGG Reporting Station
Light Rain Light Rain  
Wind Chill: 52°   Ceiling: 900
Heat Index: 52°   Visibility: 2.4mi
Dew Point: 52°   Wind: 21mph
Humidity: 100%   Direction: 240°WSW
Pressure: 29.68"   Gusts: NA
Location:  53.22°N, 6.81°E
Report Text: EHGG 182255Z AUTO 24018KT 210V270 3900 -RA FEW006 SCT007 BKN009BKN015CB 11/11 Q1005 REDZ
Loading
Personal Weather Stations






























Interactive Weather Map New forecast layout! Learn more

10-Day Weather Forecast

Advertisements
Track Severe Weather on mobile